sensor_id;sensor_type;location;lat;lon;timestamp;pressure;altitude;pressure_sealevel;temperature;humidity
63088;BME280;49173;43.164;27.786;2022-10-26T00:01:06;100669.88;;;17.99;57.43
63088;BME280;49173;43.164;27.786;2022-10-26T00:03:33;100665.16;;;18.01;57.35
63088;BME280;49173;43.164;27.786;2022-10-26T00:06:14;100668.00;;;18.00;57.50
63088;BME280;49173;43.164;27.786;2022-10-26T00:08:40;100671.84;;;17.97;57.36
63088;BME280;49173;43.164;27.786;2022-10-26T00:11:07;100678.63;;;17.92;57.56
63088;BME280;49173;43.164;27.786;2022-10-26T00:13:34;100692.22;;;17.92;57.61
63088;BME280;49173;43.164;27.786;2022-10-26T00:16:00;100686.16;;;17.88;57.75
63088;BME280;49173;43.164;27.786;2022-10-26T00:18:26;100693.81;;;17.83;58.02
63088;BME280;49173;43.164;27.786;2022-10-26T00:20:52;100700.72;;;17.87;57.86
63088;BME280;49173;43.164;27.786;2022-10-26T00:23:18;100706.41;;;17.84;57.99
63088;BME280;49173;43.164;27.786;2022-10-26T00:25:44;100711.06;;;17.82;58.13
63088;BME280;49173;43.164;27.786;2022-10-26T00:28:09;100711.19;;;17.80;57.98
63088;BME280;49173;43.164;27.786;2022-10-26T00:30:38;100705.03;;;17.78;58.16
63088;BME280;49173;43.164;27.786;2022-10-26T00:33:04;100706.75;;;17.79;58.31
63088;BME280;49173;43.164;27.786;2022-10-26T00:35:29;100708.97;;;17.74;58.35
63088;BME280;49173;43.164;27.786;2022-10-26T00:37:55;100701.69;;;17.75;58.44
63088;BME280;49173;43.164;27.786;2022-10-26T00:40:25;100704.75;;;17.70;58.43
63088;BME280;49173;43.164;27.786;2022-10-26T00:42:51;100710.41;;;17.67;58.57
63088;BME280;49173;43.164;27.786;2022-10-26T00:45:24;100714.13;;;17.66;58.58
63088;BME280;49173;43.164;27.786;2022-10-26T00:47:53;100699.56;;;17.67;58.76
63088;BME280;49173;43.164;27.786;2022-10-26T00:50:30;100704.97;;;17.67;58.49
63088;BME280;49173;43.164;27.786;2022-10-26T00:52:59;100707.09;;;17.64;58.54
63088;BME280;49173;43.164;27.786;2022-10-26T00:55:32;100702.28;;;17.56;58.87
63088;BME280;49173;43.164;27.786;2022-10-26T00:58:01;100694.59;;;17.50;58.99
63088;BME280;49173;43.164;27.786;2022-10-26T01:00:28;100698.41;;;17.47;59.05
63088;BME280;49173;43.164;27.786;2022-10-26T01:02:57;100710.16;;;17.48;58.97
63088;BME280;49173;43.164;27.786;2022-10-26T01:05:25;100711.09;;;17.36;59.31
63088;BME280;49173;43.164;27.786;2022-10-26T01:07:52;100716.88;;;17.31;59.78
63088;BME280;49173;43.164;27.786;2022-10-26T01:10:19;100701.34;;;17.33;59.72
63088;BME280;49173;43.164;27.786;2022-10-26T01:12:46;100712.69;;;17.38;59.56
63088;BME280;49173;43.164;27.786;2022-10-26T01:15:12;100710.97;;;17.37;59.82
63088;BME280;49173;43.164;27.786;2022-10-26T01:17:56;100716.75;;;17.33;59.85
63088;BME280;49173;43.164;27.786;2022-10-26T01:23:56;100711.56;;;17.29;60.29
63088;BME280;49173;43.164;27.786;2022-10-26T01:26:50;100717.84;;;17.30;60.17
63088;BME280;49173;43.164;27.786;2022-10-26T01:29:39;100714.28;;;17.29;60.38
63088;BME280;49173;43.164;27.786;2022-10-26T01:32:14;100709.06;;;17.26;60.52
63088;BME280;49173;43.164;27.786;2022-10-26T01:35:11;100721.69;;;17.27;60.91
63088;BME280;49173;43.164;27.786;2022-10-26T01:37:45;100717.34;;;17.25;60.66
63088;BME280;49173;43.164;27.786;2022-10-26T01:40:19;100721.16;;;17.22;61.01
63088;BME280;49173;43.164;27.786;2022-10-26T01:42:51;100715.06;;;17.08;61.42
63088;BME280;49173;43.164;27.786;2022-10-26T01:45:19;100717.13;;;17.04;61.65
63088;BME280;49173;43.164;27.786;2022-10-26T01:47:46;100726.13;;;17.05;61.80
63088;BME280;49173;43.164;27.786;2022-10-26T01:50:13;100724.19;;;17.07;61.59
63088;BME280;49173;43.164;27.786;2022-10-26T01:52:39;100718.00;;;17.05;61.58
63088;BME280;49173;43.164;27.786;2022-10-26T01:55:38;100722.34;;;17.07;61.66
63088;BME280;49173;43.164;27.786;2022-10-26T02:01:00;100726.50;;;17.00;61.71
63088;BME280;49173;43.164;27.786;2022-10-26T02:06:22;100724.00;;;16.97;62.17
63088;BME280;49173;43.164;27.786;2022-10-26T02:11:40;100721.44;;;16.95;62.22
63088;BME280;49173;43.164;27.786;2022-10-26T02:14:22;100722.63;;;16.91;62.14
63088;BME280;49173;43.164;27.786;2022-10-26T02:16:55;100723.72;;;16.89;62.46
63088;BME280;49173;43.164;27.786;2022-10-26T02:24:47;100727.69;;;16.85;62.46
63088;BME280;49173;43.164;27.786;2022-10-26T02:27:36;100728.75;;;16.82;62.71
63088;BME280;49173;43.164;27.786;2022-10-26T02:30:06;100721.72;;;16.80;62.89
63088;BME280;49173;43.164;27.786;2022-10-26T02:32:35;100727.47;;;16.75;63.09
63088;BME280;49173;43.164;27.786;2022-10-26T02:35:03;100734.88;;;16.73;63.38
63088;BME280;49173;43.164;27.786;2022-10-26T02:37:32;100753.19;;;16.69;63.28
63088;BME280;49173;43.164;27.786;2022-10-26T02:39:59;100750.81;;;16.65;63.38
63088;BME280;49173;43.164;27.786;2022-10-26T02:42:27;100758.28;;;16.61;63.52
63088;BME280;49173;43.164;27.786;2022-10-26T02:45:03;100753.22;;;16.57;63.61
63088;BME280;49173;43.164;27.786;2022-10-26T02:47:31;100752.81;;;16.50;63.70
63088;BME280;49173;43.164;27.786;2022-10-26T02:49:58;100766.56;;;16.47;63.95
63088;BME280;49173;43.164;27.786;2022-10-26T02:52:39;100772.22;;;16.44;64.18
63088;BME280;49173;43.164;27.786;2022-10-26T02:55:13;100770.59;;;16.41;64.29
63088;BME280;49173;43.164;27.786;2022-10-26T02:57:44;100771.69;;;16.39;64.26
63088;BME280;49173;43.164;27.786;2022-10-26T03:00:15;100773.53;;;16.38;64.39
63088;BME280;49173;43.164;27.786;2022-10-26T03:02:43;100776.34;;;16.37;64.72
63088;BME280;49173;43.164;27.786;2022-10-26T03:05:15;100780.78;;;16.38;64.63
63088;BME280;49173;43.164;27.786;2022-10-26T03:07:42;100776.34;;;16.37;64.88
63088;BME280;49173;43.164;27.786;2022-10-26T03:10:08;100781.00;;;16.35;64.81
63088;BME280;49173;43.164;27.786;2022-10-26T03:12:34;100797.38;;;16.33;65.01
63088;BME280;49173;43.164;27.786;2022-10-26T03:15:00;100789.47;;;16.30;65.00
63088;BME280;49173;43.164;27.786;2022-10-26T03:17:26;100796.94;;;16.27;65.21
63088;BME280;49173;43.164;27.786;2022-10-26T03:19:52;100792.75;;;16.23;65.47
63088;BME280;49173;43.164;27.786;2022-10-26T03:22:17;100809.09;;;16.21;65.29
63088;BME280;49173;43.164;27.786;2022-10-26T03:24:43;100802.91;;;16.19;65.38
63088;BME280;49173;43.164;27.786;2022-10-26T03:27:09;100804.88;;;16.17;65.59
63088;BME280;49173;43.164;27.786;2022-10-26T03:29:34;100814.09;;;16.14;65.85
63088;BME280;49173;43.164;27.786;2022-10-26T03:32:00;100804.31;;;16.12;65.91
63088;BME280;49173;43.164;27.786;2022-10-26T03:34:26;100804.56;;;16.09;65.96
63088;BME280;49173;43.164;27.786;2022-10-26T03:36:51;100809.31;;;16.05;66.17
63088;BME280;49173;43.164;27.786;2022-10-26T03:39:17;100803.13;;;16.03;66.27
63088;BME280;49173;43.164;27.786;2022-10-26T03:41:43;100807.81;;;16.01;66.54
63088;BME280;49173;43.164;27.786;2022-10-26T03:44:08;100798.81;;;16.01;66.69
63088;BME280;49173;43.164;27.786;2022-10-26T03:46:34;100801.72;;;15.98;66.48
63088;BME280;49173;43.164;27.786;2022-10-26T03:49:00;100804.56;;;15.96;66.79
63088;BME280;49173;43.164;27.786;2022-10-26T03:51:26;100809.28;;;15.92;66.83
63088;BME280;49173;43.164;27.786;2022-10-26T03:53:52;100823.81;;;15.91;66.90
63088;BME280;49173;43.164;27.786;2022-10-26T03:56:18;100814.94;;;15.89;67.02
63088;BME280;49173;43.164;27.786;2022-10-26T03:58:43;100815.81;;;15.90;67.20
63088;BME280;49173;43.164;27.786;2022-10-26T04:01:09;100826.50;;;15.91;67.24
63088;BME280;49173;43.164;27.786;2022-10-26T04:03:35;100822.94;;;15.91;67.27
63088;BME280;49173;43.164;27.786;2022-10-26T04:06:01;100824.69;;;15.92;66.95
63088;BME280;49173;43.164;27.786;2022-10-26T04:08:27;100817.75;;;15.88;66.96
63088;BME280;49173;43.164;27.786;2022-10-26T04:10:53;100830.31;;;15.89;66.79
63088;BME280;49173;43.164;27.786;2022-10-26T04:13:19;100830.31;;;15.89;66.98
63088;BME280;49173;43.164;27.786;2022-10-26T04:15:45;100826.63;;;15.90;66.88
63088;BME280;49173;43.164;27.786;2022-10-26T04:18:10;100835.72;;;15.89;66.90
63088;BME280;49173;43.164;27.786;2022-10-26T04:20:38;100839.41;;;15.88;67.05
63088;BME280;49173;43.164;27.786;2022-10-26T04:23:08;100838.56;;;15.87;66.75
63088;BME280;49173;43.164;27.786;2022-10-26T04:25:35;100841.38;;;15.86;67.17
63088;BME280;49173;43.164;27.786;2022-10-26T04:28:03;100843.09;;;15.87;67.02
63088;BME280;49173;43.164;27.786;2022-10-26T04:30:30;100843.28;;;15.84;67.26
63088;BME280;49173;43.164;27.786;2022-10-26T04:32:56;100847.84;;;15.83;67.06
63088;BME280;49173;43.164;27.786;2022-10-26T04:35:22;100850.56;;;15.83;67.38
63088;BME280;49173;43.164;27.786;2022-10-26T04:37:48;100848.72;;;15.84;67.38
63088;BME280;49173;43.164;27.786;2022-10-26T04:40:14;100854.47;;;15.79;67.44
63088;BME280;49173;43.164;27.786;2022-10-26T04:42:43;100859.19;;;15.76;67.57
63088;BME280;49173;43.164;27.786;2022-10-26T04:45:10;100871.13;;;15.73;67.52
63088;BME280;49173;43.164;27.786;2022-10-26T04:47:36;100868.59;;;15.70;67.70
63088;BME280;49173;43.164;27.786;2022-10-26T04:50:03;100875.97;;;15.68;67.80
63088;BME280;49173;43.164;27.786;2022-10-26T04:52:29;100875.09;;;15.68;68.02
63088;BME280;49173;43.164;27.786;2022-10-26T04:54:55;100877.91;;;15.66;67.91
63088;BME280;49173;43.164;27.786;2022-10-26T04:57:20;100882.47;;;15.65;68.25
63088;BME280;49173;43.164;27.786;2022-10-26T04:59:46;100884.38;;;15.63;68.22
63088;BME280;49173;43.164;27.786;2022-10-26T05:02:12;100885.34;;;15.62;68.39
63088;BME280;49173;43.164;27.786;2022-10-26T05:04:37;100889.97;;;15.60;68.49
63088;BME280;49173;43.164;27.786;2022-10-26T05:07:03;100889.03;;;15.61;68.54
63088;BME280;49173;43.164;27.786;2022-10-26T05:09:29;100904.50;;;15.59;68.45
63088;BME280;49173;43.164;27.786;2022-10-26T05:11:54;100914.44;;;15.59;68.45
63088;BME280;49173;43.164;27.786;2022-10-26T05:14:20;100911.63;;;15.60;68.49
63088;BME280;49173;43.164;27.786;2022-10-26T05:16:46;100904.50;;;15.59;68.46
63088;BME280;49173;43.164;27.786;2022-10-26T05:19:11;100912.59;;;15.59;68.56
63088;BME280;49173;43.164;27.786;2022-10-26T05:21:37;100915.19;;;15.61;68.64
63088;BME280;49173;43.164;27.786;2022-10-26T05:24:03;100926.72;;;15.64;68.88
63088;BME280;49173;43.164;27.786;2022-10-26T05:26:32;100925.75;;;15.65;68.84
63088;BME280;49173;43.164;27.786;2022-10-26T05:28:58;100925.53;;;15.69;68.56
63088;BME280;49173;43.164;27.786;2022-10-26T05:31:24;100928.69;;;15.75;68.48
63088;BME280;49173;43.164;27.786;2022-10-26T05:33:50;100928.41;;;15.80;68.32
63088;BME280;49173;43.164;27.786;2022-10-26T05:36:17;100932.63;;;15.84;68.26
63088;BME280;49173;43.164;27.786;2022-10-26T05:38:44;100934.03;;;15.89;67.86
63088;BME280;49173;43.164;27.786;2022-10-26T05:41:10;100935.38;;;15.97;67.72
63088;BME280;49173;43.164;27.786;2022-10-26T05:43:36;100937.66;;;16.03;67.52
63088;BME280;49173;43.164;27.786;2022-10-26T05:46:02;100937.34;;;16.07;67.22
63088;BME280;49173;43.164;27.786;2022-10-26T05:48:27;100945.38;;;16.09;66.96
63088;BME280;49173;43.164;27.786;2022-10-26T05:50:53;100943.41;;;16.11;67.14
63088;BME280;49173;43.164;27.786;2022-10-26T05:53:19;100945.13;;;16.12;67.03
63088;BME280;49173;43.164;27.786;2022-10-26T05:55:45;100949.78;;;16.10;67.07
63088;BME280;49173;43.164;27.786;2022-10-26T05:58:13;100955.09;;;16.11;67.58
63088;BME280;49173;43.164;27.786;2022-10-26T06:06:03;100957.63;;;16.14;67.70
63088;BME280;49173;43.164;27.786;2022-10-26T06:08:31;100960.09;;;16.17;67.63
63088;BME280;49173;43.164;27.786;2022-10-26T06:10:57;100960.69;;;16.35;67.64
63088;BME280;49173;43.164;27.786;2022-10-26T06:13:27;100954.06;;;16.52;66.63
63088;BME280;49173;43.164;27.786;2022-10-26T06:18:49;100965.47;;;16.70;65.75
63088;BME280;49173;43.164;27.786;2022-10-26T06:24:07;100964.72;;;16.81;65.52
63088;BME280;49173;43.164;27.786;2022-10-26T06:29:36;100966.56;;;16.93;65.34
63088;BME280;49173;43.164;27.786;2022-10-26T06:32:08;100971.00;;;16.94;65.00
63088;BME280;49173;43.164;27.786;2022-10-26T06:34:35;100971.22;;;16.91;64.87
63088;BME280;49173;43.164;27.786;2022-10-26T06:37:02;100970.34;;;16.90;64.61
63088;BME280;49173;43.164;27.786;2022-10-26T06:39:30;100972.97;;;16.92;64.83
63088;BME280;49173;43.164;27.786;2022-10-26T06:41:59;100972.97;;;16.92;65.01
63088;BME280;49173;43.164;27.786;2022-10-26T06:44:26;100981.00;;;16.93;64.46
63088;BME280;49173;43.164;27.786;2022-10-26T06:47:20;100981.84;;;16.94;64.70
63088;BME280;49173;43.164;27.786;2022-10-26T06:55:50;100980.13;;;16.93;64.65
63088;BME280;49173;43.164;27.786;2022-10-26T06:58:18;100991.06;;;16.91;64.70
63088;BME280;49173;43.164;27.786;2022-10-26T07:00:47;100981.97;;;16.92;64.43
63088;BME280;49173;43.164;27.786;2022-10-26T07:03:14;100991.06;;;16.91;64.45
63088;BME280;49173;43.164;27.786;2022-10-26T07:05:40;100992.81;;;16.92;63.90
63088;BME280;49173;43.164;27.786;2022-10-26T07:08:05;100998.13;;;16.94;64.32
63088;BME280;49173;43.164;27.786;2022-10-26T07:10:31;100994.44;;;16.95;64.33
63088;BME280;49173;43.164;27.786;2022-10-26T07:12:59;100992.47;;;16.97;64.04
63088;BME280;49173;43.164;27.786;2022-10-26T07:15:25;101003.22;;;16.98;64.68
63088;BME280;49173;43.164;27.786;2022-10-26T07:17:50;101009.28;;;17.02;64.62
63088;BME280;49173;43.164;27.786;2022-10-26T07:20:18;101014.47;;;17.05;64.81
63088;BME280;49173;43.164;27.786;2022-10-26T07:22:53;101001.56;;;17.09;64.46
63088;BME280;49173;43.164;27.786;2022-10-26T07:25:19;101012.97;;;17.14;64.35
63088;BME280;49173;43.164;27.786;2022-10-26T07:27:45;101006.44;;;17.16;64.22
63088;BME280;49173;43.164;27.786;2022-10-26T07:30:11;101014.34;;;17.19;63.73
63088;BME280;49173;43.164;27.786;2022-10-26T07:32:37;101012.41;;;17.21;63.69
63088;BME280;49173;43.164;27.786;2022-10-26T07:35:03;101018.47;;;17.25;63.59
63088;BME280;49173;43.164;27.786;2022-10-26T07:37:29;101016.63;;;17.25;63.33
63088;BME280;49173;43.164;27.786;2022-10-26T07:39:54;101018.34;;;17.26;63.39
63088;BME280;49173;43.164;27.786;2022-10-26T07:42:20;101012.91;;;17.26;63.56
63088;BME280;49173;43.164;27.786;2022-10-26T07:44:46;101005.56;;;17.28;63.70
63088;BME280;49173;43.164;27.786;2022-10-26T07:47:12;101015.00;;;17.36;64.18
63088;BME280;49173;43.164;27.786;2022-10-26T07:49:38;101014.09;;;17.48;63.92
63088;BME280;49173;43.164;27.786;2022-10-26T07:52:04;101002.69;;;17.55;63.61
63088;BME280;49173;43.164;27.786;2022-10-26T07:54:31;101004.56;;;17.66;63.22
63088;BME280;49173;43.164;27.786;2022-10-26T07:56:57;101010.22;;;17.76;62.99
63088;BME280;49173;43.164;27.786;2022-10-26T07:59:23;101004.31;;;17.82;62.39
63088;BME280;49173;43.164;27.786;2022-10-26T08:01:48;101007.44;;;17.89;62.35
63088;BME280;49173;43.164;27.786;2022-10-26T08:04:14;101003.94;;;17.99;62.42
63088;BME280;49173;43.164;27.786;2022-10-26T08:06:41;101007.78;;;18.08;61.34
63088;BME280;49173;43.164;27.786;2022-10-26T08:09:06;100997.19;;;18.16;61.10
63088;BME280;49173;43.164;27.786;2022-10-26T08:11:57;100997.00;;;18.30;60.78
63088;BME280;49173;43.164;27.786;2022-10-26T08:14:23;101004.09;;;18.44;60.36
63088;BME280;49173;43.164;27.786;2022-10-26T08:16:49;101001.53;;;18.54;59.84
63088;BME280;49173;43.164;27.786;2022-10-26T08:19:17;101007.97;;;18.64;59.33
63088;BME280;49173;43.164;27.786;2022-10-26T08:21:43;101004.47;;;18.75;58.31
63088;BME280;49173;43.164;27.786;2022-10-26T08:24:09;101014.09;;;18.79;57.96
63088;BME280;49173;43.164;27.786;2022-10-26T08:26:38;101019.41;;;18.80;57.67
63088;BME280;49173;43.164;27.786;2022-10-26T08:29:04;101013.22;;;18.78;58.05
63088;BME280;49173;43.164;27.786;2022-10-26T08:31:29;101022.38;;;18.77;58.18
63088;BME280;49173;43.164;27.786;2022-10-26T08:33:55;101025.22;;;18.76;58.11
63088;BME280;49173;43.164;27.786;2022-10-26T08:36:25;101020.66;;;18.76;57.81
63088;BME280;49173;43.164;27.786;2022-10-26T08:38:51;101021.53;;;18.77;57.56
63088;BME280;49173;43.164;27.786;2022-10-26T08:41:24;101017.44;;;18.82;57.64
63088;BME280;49173;43.164;27.786;2022-10-26T08:43:58;101023.88;;;18.92;57.84
63088;BME280;49173;43.164;27.786;2022-10-26T08:46:32;101023.41;;;18.99;57.53
63088;BME280;49173;43.164;27.786;2022-10-26T08:49:22;101025.38;;;19.08;57.39
63088;BME280;49173;43.164;27.786;2022-10-26T08:51:53;101018.09;;;19.19;57.16
63088;BME280;49173;43.164;27.786;2022-10-26T08:56:56;101017.72;;;19.46;55.93
63088;BME280;49173;43.164;27.786;2022-10-26T08:59:36;101024.88;;;19.59;55.91
63088;BME280;49173;43.164;27.786;2022-10-26T09:02:07;101016.34;;;19.63;55.71
63088;BME280;49173;43.164;27.786;2022-10-26T09:04:35;101011.97;;;19.72;55.46
63088;BME280;49173;43.164;27.786;2022-10-26T09:07:14;101012.22;;;19.80;55.07
63088;BME280;49173;43.164;27.786;2022-10-26T09:13:25;101012.84;;;19.84;54.97
63088;BME280;49173;43.164;27.786;2022-10-26T09:18:34;101015.69;;;19.82;54.76
63088;BME280;49173;43.164;27.786;2022-10-26T09:24:06;101015.69;;;19.82;54.46
63088;BME280;49173;43.164;27.786;2022-10-26T09:27:01;101012.22;;;19.80;54.20
63088;BME280;49173;43.164;27.786;2022-10-26T09:29:37;101016.56;;;19.83;54.52
63088;BME280;49173;43.164;27.786;2022-10-26T09:32:09;101011.09;;;19.83;54.41
63088;BME280;49173;43.164;27.786;2022-10-26T09:34:44;101014.19;;;19.89;54.47
63088;BME280;49173;43.164;27.786;2022-10-26T09:37:34;101016.41;;;19.95;54.69
63088;BME280;49173;43.164;27.786;2022-10-26T09:43:00;101016.84;;;20.00;53.84
63088;BME280;49173;43.164;27.786;2022-10-26T09:48:06;101007.16;;;20.08;53.37
63088;BME280;49173;43.164;27.786;2022-10-26T09:50:36;101007.06;;;20.09;53.38
63088;BME280;49173;43.164;27.786;2022-10-26T09:53:03;101006.78;;;20.12;53.24
63088;BME280;49173;43.164;27.786;2022-10-26T09:55:33;101002.81;;;20.16;52.70
63088;BME280;49173;43.164;27.786;2022-10-26T09:58:11;100996.22;;;20.19;52.61
63088;BME280;49173;43.164;27.786;2022-10-26T10:00:39;101000.31;;;20.24;52.94
63088;BME280;49173;43.164;27.786;2022-10-26T10:03:21;101004.97;;;20.34;52.56
63088;BME280;49173;43.164;27.786;2022-10-26T10:05:49;100998.13;;;20.39;52.22
63088;BME280;49173;43.164;27.786;2022-10-26T10:13:31;101006.59;;;20.57;51.74
63088;BME280;49173;43.164;27.786;2022-10-26T10:16:12;101008.22;;;20.60;51.12
63088;BME280;49173;43.164;27.786;2022-10-26T10:18:40;101003.63;;;20.60;50.16
63088;BME280;49173;43.164;27.786;2022-10-26T10:21:07;100996.53;;;20.57;50.31
63088;BME280;49173;43.164;27.786;2022-10-26T10:23:36;101001.06;;;20.68;50.23
63088;BME280;49173;43.164;27.786;2022-10-26T10:26:09;101003.28;;;20.74;49.86
63088;BME280;49173;43.164;27.786;2022-10-26T10:28:41;100996.13;;;20.83;49.61
63088;BME280;49173;43.164;27.786;2022-10-26T10:31:22;100993.25;;;20.84;49.53
63088;BME280;49173;43.164;27.786;2022-10-26T10:33:51;100992.41;;;20.84;49.59
63088;BME280;49173;43.164;27.786;2022-10-26T10:36:19;100991.28;;;20.87;49.55
63088;BME280;49173;43.164;27.786;2022-10-26T10:38:47;100989.75;;;20.94;49.54
63088;BME280;49173;43.164;27.786;2022-10-26T10:41:32;100998.31;;;20.89;48.81
63088;BME280;49173;43.164;27.786;2022-10-26T10:46:45;100995.31;;;20.92;49.02
63088;BME280;49173;43.164;27.786;2022-10-26T10:49:22;100982.69;;;20.91;48.42
63088;BME280;49173;43.164;27.786;2022-10-26T10:51:50;100987.56;;;20.88;48.04
63088;BME280;49173;43.164;27.786;2022-10-26T10:54:34;100992.72;;;20.91;47.03
63088;BME280;49173;43.164;27.786;2022-10-26T10:57:23;100986.88;;;20.95;46.30
63088;BME280;49173;43.164;27.786;2022-10-26T11:00:02;100985.34;;;21.02;46.30
63088;BME280;49173;43.164;27.786;2022-10-26T11:05:51;100976.31;;;21.11;45.16
63088;BME280;49173;43.164;27.786;2022-10-26T11:08:59;100978.78;;;21.15;45.31
63088;BME280;49173;43.164;27.786;2022-10-26T11:14:02;100977.72;;;21.06;45.43
63088;BME280;49173;43.164;27.786;2022-10-26T11:16:36;100968.97;;;21.12;45.55
63088;BME280;49173;43.164;27.786;2022-10-26T11:21:52;100976.63;;;21.18;44.31
63088;BME280;49173;43.164;27.786;2022-10-26T11:24:28;100980.53;;;21.25;44.89
63088;BME280;49173;43.164;27.786;2022-10-26T11:26:59;100979.16;;;21.31;45.20
63088;BME280;49173;43.164;27.786;2022-10-26T11:35:13;100976.06;;;21.15;44.67
63088;BME280;49173;43.164;27.786;2022-10-26T11:37:54;100972.16;;;21.17;45.21
63088;BME280;49173;43.164;27.786;2022-10-26T11:43:17;100976.44;;;21.31;45.32
63088;BME280;49173;43.164;27.786;2022-10-26T11:46:03;100981.75;;;21.32;44.97
63088;BME280;49173;43.164;27.786;2022-10-26T11:48:36;100987.38;;;21.41;44.72
63088;BME280;49173;43.164;27.786;2022-10-26T11:51:54;100985.66;;;21.39;43.99
63088;BME280;49173;43.164;27.786;2022-10-26T11:53:57;100988.06;;;21.33;44.10
63088;BME280;49173;43.164;27.786;2022-10-26T11:58:58;100973.44;;;21.13;43.95
63088;BME280;49173;43.164;27.786;2022-10-26T12:01:25;100977.03;;;21.13;43.78
63088;BME280;49173;43.164;27.786;2022-10-26T12:03:53;100970.31;;;21.18;44.07
63088;BME280;49173;43.164;27.786;2022-10-26T12:06:24;100978.50;;;21.18;44.54
63088;BME280;49173;43.164;27.786;2022-10-26T12:09:05;100980.81;;;21.22;44.84
63088;BME280;49173;43.164;27.786;2022-10-26T12:17:09;100979.63;;;21.46;43.73
63088;BME280;49173;43.164;27.786;2022-10-26T12:22:17;100974.06;;;21.66;43.77
63088;BME280;49173;43.164;27.786;2022-10-26T12:25:05;100978.41;;;21.79;43.35
63088;BME280;49173;43.164;27.786;2022-10-26T12:27:49;100974.53;;;21.91;42.74
63088;BME280;49173;43.164;27.786;2022-10-26T12:37:56;100979.88;;;22.31;42.25
63088;BME280;49173;43.164;27.786;2022-10-26T12:45:41;100984.19;;;22.43;42.10
63088;BME280;49173;43.164;27.786;2022-10-26T12:48:20;100984.47;;;22.40;42.65
63088;BME280;49173;43.164;27.786;2022-10-26T12:50:46;100986.50;;;22.19;42.79
63088;BME280;49173;43.164;27.786;2022-10-26T12:53:14;100987.53;;;22.18;43.42
63088;BME280;49173;43.164;27.786;2022-10-26T13:03:32;100983.78;;;22.19;42.55
63088;BME280;49173;43.164;27.786;2022-10-26T13:08:55;100982.50;;;22.23;42.63
63088;BME280;49173;43.164;27.786;2022-10-26T13:11:25;100981.47;;;22.24;42.65
63088;BME280;49173;43.164;27.786;2022-10-26T13:13:54;100989.13;;;22.20;42.68
63088;BME280;49173;43.164;27.786;2022-10-26T13:16:26;100992.28;;;22.16;43.36
63088;BME280;49173;43.164;27.786;2022-10-26T13:18:53;100992.84;;;22.19;44.13
63088;BME280;49173;43.164;27.786;2022-10-26T13:21:20;101006.81;;;22.16;44.53
63088;BME280;49173;43.164;27.786;2022-10-26T13:23:56;101003.78;;;22.19;44.85
63088;BME280;49173;43.164;27.786;2022-10-26T13:26:24;101002.06;;;22.18;43.70
63088;BME280;49173;43.164;27.786;2022-10-26T13:28:52;101006.38;;;22.21;43.82
63088;BME280;49173;43.164;27.786;2022-10-26T13:33:58;101017.03;;;22.14;45.33
63088;BME280;49173;43.164;27.786;2022-10-26T13:36:40;101015.25;;;22.04;45.41
63088;BME280;49173;43.164;27.786;2022-10-26T13:39:42;101019.84;;;21.93;45.92
63088;BME280;49173;43.164;27.786;2022-10-26T13:42:19;101031.34;;;21.87;46.05
63088;BME280;49173;43.164;27.786;2022-10-26T13:45:00;101029.63;;;21.86;46.31
63088;BME280;49173;43.164;27.786;2022-10-26T13:47:33;101023.84;;;21.80;45.67
63088;BME280;49173;43.164;27.786;2022-10-26T13:50:06;101023.16;;;21.78;46.02
63088;BME280;49173;43.164;27.786;2022-10-26T13:52:38;101024.00;;;21.78;46.10
63088;BME280;49173;43.164;27.786;2022-10-26T13:57:42;101034.34;;;21.75;47.28
63088;BME280;49173;43.164;27.786;2022-10-26T14:00:16;101031.44;;;21.66;47.76
63088;BME280;49173;43.164;27.786;2022-10-26T14:02:44;101037.00;;;21.55;48.37
63088;BME280;49173;43.164;27.786;2022-10-26T14:05:12;101031.53;;;21.46;48.49
63088;BME280;49173;43.164;27.786;2022-10-26T14:07:43;101037.22;;;21.33;48.85
63088;BME280;49173;43.164;27.786;2022-10-26T14:10:30;101042.59;;;21.23;49.80
63088;BME280;49173;43.164;27.786;2022-10-26T14:12:57;101042.00;;;21.20;50.37
63088;BME280;49173;43.164;27.786;2022-10-26T14:15:26;101045.28;;;21.13;50.66
63088;BME280;49173;43.164;27.786;2022-10-26T14:17:55;101043.69;;;21.11;51.29
63088;BME280;49173;43.164;27.786;2022-10-26T14:20:23;101047.25;;;21.02;51.27
63088;BME280;49173;43.164;27.786;2022-10-26T14:22:51;101057.28;;;21.01;51.58
63088;BME280;49173;43.164;27.786;2022-10-26T14:25:22;101053.97;;;20.98;52.15
63088;BME280;49173;43.164;27.786;2022-10-26T14:27:50;101058.84;;;20.94;52.50
63088;BME280;49173;43.164;27.786;2022-10-26T14:30:24;101061.81;;;20.91;52.63
63088;BME280;49173;43.164;27.786;2022-10-26T14:32:51;101058.22;;;20.70;52.99
63088;BME280;49173;43.164;27.786;2022-10-26T14:35:23;101056.16;;;20.62;53.64
63088;BME280;49173;43.164;27.786;2022-10-26T14:37:53;101061.69;;;20.51;54.33
63088;BME280;49173;43.164;27.786;2022-10-26T14:40:24;101066.66;;;20.46;55.01
63088;BME280;49173;43.164;27.786;2022-10-26T14:42:54;101071.13;;;20.36;55.57
63088;BME280;49173;43.164;27.786;2022-10-26T14:45:28;101068.31;;;20.26;56.07
63088;BME280;49173;43.164;27.786;2022-10-26T14:48:00;101078.38;;;20.14;56.60
63088;BME280;49173;43.164;27.786;2022-10-26T14:50:27;101071.06;;;20.15;56.85
63088;BME280;49173;43.164;27.786;2022-10-26T14:53:12;101077.78;;;20.11;57.44
63088;BME280;49173;43.164;27.786;2022-10-26T14:55:57;101085.84;;;20.01;57.59